Terminal Aerodrome Forecast
Issued by NWS Wakefield, VA

Home | Current Version | Previous Version | Text Only | Print | Product List | Glossary On
Versions: 1 2 3 4 5 6 7 8 9 10 11 12 13 14 15 16 17 18 19 20 21 22 23 24 25 26 27 28 29 30 31
530
FTUS41 KAKQ 060914 AAB
TAFORF
TAF AMD
KORF 060914Z 0609/0706 VRB05KT P6SM -RA SCT007 BKN020 OVC050
      TEMPO 0609/0611 4SM -RA BR BKN008
     FM061200 33008KT P6SM -RA OVC008
     FM062000 32010KT P6SM OVC015
     FM070400 VRB05KT P6SM BKN040=

USA.gov is the U.S. government's official web portal to all federal, state and local government web resources and services.